createdAt,value
2018-02-07T00:00:11.351Z,63.73
2018-02-07T00:01:11.280Z,64.39
2018-02-07T00:02:11.210Z,64.39
2018-02-07T00:03:11.137Z,64.11
2018-02-07T00:04:11.066Z,64.20
2018-02-07T00:05:11.045Z,64.39
2018-02-07T00:06:10.926Z,64.20
2018-02-07T00:07:10.853Z,64.11
2018-02-07T00:08:10.783Z,63.73
2018-02-07T00:09:10.711Z,63.82
2018-02-07T00:10:10.640Z,64.29
2018-02-07T00:11:10.567Z,64.11
2018-02-07T00:12:10.497Z,64.48
2018-02-07T00:13:10.426Z,64.29
2018-02-07T00:14:10.356Z,64.29
2018-02-07T00:15:10.285Z,64.48
2018-02-07T00:16:10.213Z,64.76
2018-02-07T00:17:10.142Z,64.76
2018-02-07T00:18:10.071Z,64.86
2018-02-07T00:19:09.999Z,64.76
2018-02-07T00:20:09.930Z,64.67
2018-02-07T00:21:09.858Z,64.67
2018-02-07T00:22:09.787Z,64.67
2018-02-07T00:23:09.716Z,64.67
2018-02-07T00:24:09.644Z,64.58
2018-02-07T00:25:09.574Z,64.76
2018-02-07T00:26:09.503Z,64.39
2018-02-07T00:27:09.431Z,64.20
2018-02-07T00:28:09.362Z,64.20
2018-02-07T00:29:09.291Z,64.58
2018-02-07T00:30:09.221Z,64.20
2018-02-07T00:31:09.146Z,64.29
2018-02-07T00:32:09.078Z,64.39
2018-02-07T00:33:09.004Z,64.39
2018-02-07T00:34:08.938Z,64.20
2018-02-07T00:35:08.862Z,64.20
2018-02-07T00:36:08.791Z,64.58
2018-02-07T00:37:08.720Z,64.67
2018-02-07T00:38:08.649Z,64.39
2018-02-07T00:39:08.577Z,64.67
2018-02-07T00:40:08.507Z,64.86
2018-02-07T00:41:08.435Z,64.76
2018-02-07T00:42:08.363Z,64.76
2018-02-07T00:43:08.292Z,64.67
2018-02-07T00:44:08.222Z,64.76
2018-02-07T00:45:08.473Z,65.05
2018-02-07T00:46:08.080Z,64.67
2018-02-07T00:47:08.008Z,64.58
2018-02-07T00:48:07.936Z,64.86
2018-02-07T00:49:07.873Z,64.70
2018-02-07T00:50:07.795Z,64.39
2018-02-07T00:51:07.724Z,64.39
2018-02-07T00:52:07.652Z,64.67
2018-02-07T00:53:07.581Z,64.86
2018-02-07T00:54:07.515Z,64.95
2018-02-07T00:55:07.438Z,65.05
2018-02-07T00:56:07.367Z,64.98
2018-02-07T00:57:07.296Z,65.46
2018-02-07T00:58:07.227Z,65.27
2018-02-07T00:59:07.153Z,65.27
2018-02-07T01:00:07.082Z,65.14
2018-02-07T01:01:07.011Z,65.33
2018-02-07T01:02:06.941Z,64.89
2018-02-07T01:03:06.868Z,64.89
2018-02-07T01:04:06.806Z,64.79
2018-02-07T01:05:06.726Z,65.27
2018-02-07T01:06:06.658Z,65.46
2018-02-07T01:07:06.584Z,65.27
2018-02-07T01:08:06.513Z,65.17
2018-02-07T01:09:06.442Z,65.17
2018-02-07T01:10:06.371Z,65.55
2018-02-07T01:11:06.299Z,65.36
2018-02-07T01:12:06.228Z,65.55
2018-02-07T01:13:06.158Z,65.65
2018-02-07T01:14:06.087Z,65.46
2018-02-07T01:15:06.014Z,65.55
2018-02-07T01:16:05.943Z,65.46
2018-02-07T01:17:05.873Z,65.17
2018-02-07T01:18:05.802Z,65.27
2018-02-07T01:19:05.729Z,65.36
2018-02-07T01:20:05.658Z,65.74
2018-02-07T01:21:05.587Z,65.93
2018-02-07T01:22:05.516Z,65.93
2018-02-07T01:23:05.444Z,65.27
2018-02-07T01:24:05.373Z,65.93
2018-02-07T01:25:05.302Z,65.93
2018-02-07T01:26:05.234Z,65.84
2018-02-07T01:27:05.159Z,65.84
2018-02-07T01:28:05.088Z,65.74
2018-02-07T01:29:05.018Z,66.41
2018-02-07T01:30:04.946Z,66.69
2018-02-07T01:31:04.874Z,65.93
2018-02-07T01:32:04.803Z,65.55
2018-02-07T01:33:04.732Z,66.12
2018-02-07T01:34:04.663Z,65.84
2018-02-07T01:35:04.589Z,65.93
2018-02-07T01:36:04.523Z,66.59
2018-02-07T01:37:04.446Z,66.78
2018-02-07T01:38:04.375Z,65.84
2018-02-07T01:39:04.305Z,66.22
2018-02-07T01:40:04.233Z,66.31
2018-02-07T01:41:04.485Z,66.31
2018-02-07T01:42:04.094Z,66.12
2018-02-07T01:43:04.020Z,66.69
2018-02-07T01:44:03.949Z,66.50
2018-02-07T01:45:03.877Z,66.12
2018-02-07T01:46:03.806Z,66.69
2018-02-07T01:47:03.736Z,66.59
2018-02-07T01:48:03.663Z,66.69
2018-02-07T01:49:03.792Z,66.41
2018-02-07T01:50:03.522Z,67.25
2018-02-07T01:51:03.449Z,66.41
2018-02-07T01:52:03.379Z,66.50
2018-02-07T01:53:03.306Z,66.41
2018-02-07T01:54:03.238Z,66.22
2018-02-07T01:55:03.164Z,66.31
2018-02-07T01:56:03.093Z,66.41
2018-02-07T01:57:03.023Z,66.31
2018-02-07T01:58:02.951Z,66.59
2018-02-07T01:59:02.880Z,66.41
2018-02-07T02:00:02.808Z,66.31
2018-02-07T02:01:02.739Z,66.50
2018-02-07T02:02:02.667Z,66.59
2018-02-07T02:03:02.594Z,66.59
2018-02-07T02:04:02.525Z,66.41
2018-02-07T02:05:02.453Z,66.31
2018-02-07T02:06:02.382Z,66.69
2018-02-07T02:07:02.310Z,66.59
2018-02-07T02:08:02.238Z,66.31
2018-02-07T02:09:02.168Z,66.41
2018-02-07T02:10:02.104Z,66.22
2018-02-07T02:11:02.027Z,66.69
2018-02-07T02:12:01.954Z,66.41
2018-02-07T02:13:01.884Z,66.37
2018-02-07T02:14:01.812Z,65.99
2018-02-07T02:15:01.742Z,66.18
2018-02-07T02:16:01.669Z,66.09
2018-02-07T02:17:01.658Z,66.28
2018-02-07T02:18:01.527Z,66.47
2018-02-07T02:19:01.455Z,66.37
2018-02-07T02:20:01.385Z,66.28
2018-02-07T02:21:01.313Z,66.37
2018-02-07T02:22:01.243Z,66.18
2018-02-07T02:23:01.171Z,66.47
2018-02-07T02:24:01.100Z,66.56
2018-02-07T02:25:01.029Z,66.09
2018-02-07T02:26:00.958Z,66.65
2018-02-07T02:27:00.886Z,66.09
2018-02-07T02:28:00.815Z,65.99
2018-02-07T02:29:00.748Z,65.42
2018-02-07T02:30:00.675Z,65.80
2018-02-07T02:31:00.601Z,65.52
2018-02-07T02:32:00.529Z,65.90
2018-02-07T02:33:00.459Z,65.99
2018-02-07T02:34:00.388Z,65.14
2018-02-07T02:35:00.317Z,65.14
2018-02-07T02:36:00.245Z,65.33
2018-02-07T02:37:00.174Z,65.52
2018-02-07T02:38:00.108Z,65.71
2018-02-07T02:39:00.032Z,64.86
2018-02-07T02:39:59.960Z,64.95
2018-02-07T02:40:59.889Z,65.05
2018-02-07T02:41:59.818Z,65.05
2018-02-07T02:42:59.747Z,65.23
2018-02-07T02:43:59.675Z,65.52
2018-02-07T02:44:59.604Z,65.90
2018-02-07T02:45:59.583Z,65.99
2018-02-07T02:46:59.460Z,65.71
2018-02-07T02:47:59.389Z,65.61
2018-02-07T02:48:59.319Z,65.52
2018-02-07T02:49:59.248Z,65.52
2018-02-07T02:50:59.205Z,65.52
2018-02-07T02:51:59.104Z,65.61
2018-02-07T02:52:59.033Z,65.61
2018-02-07T02:53:58.964Z,66.09
2018-02-07T02:54:58.891Z,65.80
2018-02-07T02:55:58.820Z,65.80
2018-02-07T02:56:58.748Z,65.80
2018-02-07T02:57:58.677Z,65.90
2018-02-07T02:58:58.604Z,66.18
2018-02-07T02:59:58.538Z,66.37
2018-02-07T03:00:58.463Z,66.56
2018-02-07T03:01:58.393Z,66.56
2018-02-07T03:02:58.320Z,65.99
2018-02-07T03:03:58.249Z,65.80
2018-02-07T03:04:58.178Z,66.37
2018-02-07T03:05:58.107Z,66.28
2018-02-07T03:06:58.036Z,66.18
2018-02-07T03:07:57.963Z,66.56
2018-02-07T03:08:57.893Z,66.56
2018-02-07T03:09:57.821Z,66.28
2018-02-07T03:10:57.749Z,66.28
2018-02-07T03:11:57.678Z,66.65
2018-02-07T03:12:57.607Z,66.28
2018-02-07T03:13:57.535Z,66.47
2018-02-07T03:14:57.463Z,65.99
2018-02-07T03:15:57.393Z,66.56
2018-02-07T03:16:57.321Z,66.28
2018-02-07T03:17:57.250Z,66.18
2018-02-07T03:18:57.177Z,65.90
2018-02-07T03:19:57.106Z,65.80
2018-02-07T03:20:57.035Z,66.47
2018-02-07T03:21:56.965Z,66.37
2018-02-07T03:22:56.898Z,66.37
2018-02-07T03:23:56.822Z,66.09
2018-02-07T03:24:56.752Z,66.47
2018-02-07T03:25:56.680Z,66.47
2018-02-07T03:26:56.606Z,66.56
2018-02-07T03:27:56.535Z,66.28
2018-02-07T03:28:56.464Z,66.28
2018-02-07T03:29:56.392Z,66.37
2018-02-07T03:30:56.320Z,66.37
2018-02-07T03:31:56.250Z,66.18
2018-02-07T03:32:56.177Z,66.28
2018-02-07T03:33:56.106Z,65.61
2018-02-07T03:34:56.035Z,65.61
2018-02-07T03:35:55.962Z,65.71
2018-02-07T03:36:55.892Z,65.61
2018-02-07T03:37:55.820Z,66.18
2018-02-07T03:38:55.749Z,65.61
2018-02-07T03:39:55.677Z,65.42
2018-02-07T03:40:55.606Z,65.90
2018-02-07T03:41:55.535Z,65.80
2018-02-07T03:42:55.462Z,66.18
2018-02-07T03:43:55.392Z,65.80
2018-02-07T03:44:55.319Z,66.28
2018-02-07T03:45:55.248Z,66.52
2018-02-07T03:46:55.176Z,66.37
2018-02-07T03:47:55.104Z,66.28
2018-02-07T03:48:55.034Z,66.09
2018-02-07T03:49:54.962Z,66.37
2018-02-07T03:50:54.890Z,65.99
2018-02-07T03:51:54.818Z,66.37
2018-02-07T03:52:54.747Z,66.37
2018-02-07T03:53:54.676Z,66.15
2018-02-07T03:54:54.603Z,66.18
2018-02-07T03:55:54.532Z,66.37
2018-02-07T03:56:54.460Z,66.18
2018-02-07T03:57:54.388Z,65.90
2018-02-07T03:58:54.317Z,65.61
2018-02-07T03:59:54.246Z,66.28
2018-02-07T04:00:54.175Z,66.65
2018-02-07T04:01:54.104Z,66.28
2018-02-07T04:02:54.031Z,66.37
2018-02-07T04:03:53.959Z,66.05
2018-02-07T04:04:53.888Z,67.09
2018-02-07T04:05:53.817Z,67.00
2018-02-07T04:06:53.745Z,67.00
2018-02-07T04:07:53.673Z,66.62
2018-02-07T04:08:53.601Z,67.09
2018-02-07T04:09:53.530Z,67.19
2018-02-07T04:10:53.460Z,67.85
2018-02-07T04:11:53.387Z,67.28
2018-02-07T04:12:53.317Z,67.94
2018-02-07T04:13:53.244Z,67.85
2018-02-07T04:14:53.172Z,67.85
2018-02-07T04:15:53.101Z,68.32
2018-02-07T04:16:53.029Z,68.32
2018-02-07T04:17:52.962Z,67.94
2018-02-07T04:18:52.887Z,67.85
2018-02-07T04:19:52.817Z,66.71
2018-02-07T04:20:52.742Z,67.09
2018-02-07T04:21:52.671Z,66.81
2018-02-07T04:22:52.598Z,66.15
2018-02-07T04:23:52.528Z,66.62
2018-02-07T04:24:52.456Z,66.62
2018-02-07T04:25:52.383Z,66.05
2018-02-07T04:26:52.312Z,66.24
2018-02-07T04:27:52.241Z,66.24
2018-02-07T04:28:52.170Z,66.43
2018-02-07T04:29:52.100Z,66.18
2018-02-07T04:30:52.026Z,66.24
2018-02-07T04:31:51.955Z,66.15
2018-02-07T04:32:51.883Z,67.00
2018-02-07T04:33:51.811Z,66.52
2018-02-07T04:34:51.740Z,67.28
2018-02-07T04:35:51.669Z,68.04
2018-02-07T04:36:51.596Z,67.94
2018-02-07T04:37:51.525Z,67.94
2018-02-07T04:38:51.452Z,67.94
2018-02-07T04:39:51.380Z,68.60
2018-02-07T04:40:51.309Z,68.32
2018-02-07T04:41:51.239Z,68.70
2018-02-07T04:42:51.172Z,68.32
2018-02-07T04:43:51.095Z,68.23
2018-02-07T04:44:51.022Z,68.79
2018-02-07T04:45:50.951Z,68.98
2018-02-07T04:46:50.880Z,68.88
2018-02-07T04:47:50.808Z,68.70
2018-02-07T04:48:50.737Z,68.32
2018-02-07T04:49:50.664Z,68.13
2018-02-07T04:50:50.590Z,68.13
2018-02-07T04:51:50.520Z,67.85
2018-02-07T04:52:50.448Z,67.94
2018-02-07T04:53:50.378Z,67.85
2018-02-07T04:54:50.304Z,67.85
2018-02-07T04:55:50.232Z,67.85
2018-02-07T04:56:50.161Z,67.75
2018-02-07T04:57:50.089Z,67.85
2018-02-07T04:58:50.017Z,67.75
2018-02-07T04:59:49.947Z,67.85
2018-02-07T05:00:49.876Z,67.00
2018-02-07T05:01:49.804Z,67.00
2018-02-07T05:02:49.729Z,67.57
2018-02-07T05:03:49.658Z,66.71
2018-02-07T05:04:49.588Z,66.81
2018-02-07T05:05:49.516Z,67.00
2018-02-07T05:06:49.442Z,67.00
2018-02-07T05:07:49.372Z,66.34
2018-02-07T05:08:49.299Z,66.43
2018-02-07T05:09:49.228Z,66.24
2018-02-07T05:10:49.155Z,66.71
2018-02-07T05:11:49.091Z,66.52
2018-02-07T05:12:49.031Z,66.43
2018-02-07T05:13:48.941Z,66.52
2018-02-07T05:14:48.868Z,66.62
2018-02-07T05:15:48.799Z,66.15
2018-02-07T05:16:48.726Z,66.15
2018-02-07T05:17:48.654Z,66.52
2018-02-07T05:18:48.581Z,66.15
2018-02-07T05:19:48.510Z,66.24
2018-02-07T05:20:48.438Z,66.43
2018-02-07T05:21:48.366Z,67.00
2018-02-07T05:22:48.293Z,66.90
2018-02-07T05:23:48.224Z,66.90
2018-02-07T05:24:48.150Z,66.90
2018-02-07T05:25:48.078Z,67.00
2018-02-07T05:26:48.008Z,67.66
2018-02-07T05:27:47.934Z,68.04
2018-02-07T05:28:47.866Z,67.85
2018-02-07T05:29:47.792Z,68.23
2018-02-07T05:30:47.718Z,68.98
2018-02-07T05:31:47.660Z,69.45
2018-02-07T05:32:47.576Z,68.98
2018-02-07T05:33:47.504Z,69.07
2018-02-07T05:34:47.431Z,69.45
2018-02-07T05:35:47.360Z,68.98
2018-02-07T05:36:47.288Z,69.07
2018-02-07T05:37:47.216Z,69.07
2018-02-07T05:38:47.144Z,69.26
2018-02-07T05:39:47.072Z,69.45
2018-02-07T05:40:47.000Z,69.35
2018-02-07T05:41:46.929Z,69.07
2018-02-07T05:42:46.858Z,69.07
2018-02-07T05:43:46.785Z,68.79
2018-02-07T05:44:46.713Z,68.41
2018-02-07T05:45:46.641Z,68.41
2018-02-07T05:46:46.568Z,68.23
2018-02-07T05:47:46.496Z,68.23
2018-02-07T05:48:46.425Z,68.13
2018-02-07T05:49:46.353Z,68.32
2018-02-07T05:50:46.282Z,67.94
2018-02-07T05:51:46.209Z,67.57
2018-02-07T05:52:46.137Z,67.94
2018-02-07T05:53:46.065Z,67.66
2018-02-07T05:54:45.994Z,67.28
2018-02-07T05:55:45.925Z,67.57
2018-02-07T05:56:45.852Z,67.94
2018-02-07T05:57:45.778Z,67.57
2018-02-07T05:58:45.705Z,67.19
2018-02-07T05:59:45.634Z,67.00
2018-02-07T06:00:45.562Z,66.90
2018-02-07T06:01:45.490Z,67.00
2018-02-07T06:02:45.417Z,66.71
2018-02-07T06:03:45.346Z,66.81
2018-02-07T06:04:45.274Z,66.71
2018-02-07T06:05:45.202Z,66.71
2018-02-07T06:06:45.129Z,66.71
2018-02-07T06:07:45.057Z,68.04
2018-02-07T06:08:44.986Z,67.66
2018-02-07T06:09:44.915Z,67.75
2018-02-07T06:10:44.842Z,67.38
2018-02-07T06:11:44.771Z,67.00
2018-02-07T06:12:44.697Z,67.09
2018-02-07T06:13:44.628Z,67.75
2018-02-07T06:14:44.554Z,67.38
2018-02-07T06:16:44.410Z,67.85
2018-02-07T06:17:44.338Z,67.09
2018-02-07T06:18:44.266Z,67.00
2018-02-07T06:19:44.194Z,67.09
2018-02-07T06:20:44.129Z,67.00
2018-02-07T06:21:44.051Z,67.09
2018-02-07T06:22:43.978Z,67.00
2018-02-07T06:23:43.907Z,67.00
2018-02-07T06:24:43.834Z,67.00
2018-02-07T06:25:43.765Z,67.09
2018-02-07T06:26:43.690Z,66.81
2018-02-07T06:27:43.619Z,66.71
2018-02-07T06:28:43.548Z,66.71
2018-02-07T06:29:43.474Z,67.00
2018-02-07T06:30:43.402Z,66.71
2018-02-07T06:31:43.330Z,67.00
2018-02-07T06:32:43.261Z,66.81
2018-02-07T06:33:43.187Z,67.19
2018-02-07T06:34:43.115Z,67.09
2018-02-07T06:35:43.043Z,67.00
2018-02-07T06:36:42.970Z,67.19
2018-02-07T06:37:43.225Z,66.62
2018-02-07T06:38:42.826Z,66.62
2018-02-07T06:39:42.753Z,67.00
2018-02-07T06:40:42.683Z,66.34
2018-02-07T06:41:42.612Z,66.52
2018-02-07T06:42:42.538Z,65.96
2018-02-07T06:43:42.466Z,66.15
2018-02-07T06:44:42.395Z,65.96
2018-02-07T06:45:42.323Z,66.34
2018-02-07T06:46:42.250Z,66.15
2018-02-07T06:47:42.223Z,66.52
2018-02-07T06:48:42.176Z,66.05
2018-02-07T06:49:42.035Z,67.09
2018-02-07T06:50:41.962Z,65.96
2018-02-07T06:51:41.889Z,66.15
2018-02-07T06:52:41.822Z,66.34
2018-02-07T06:53:41.747Z,66.15
2018-02-07T06:54:41.674Z,66.05
2018-02-07T06:55:41.602Z,66.24
2018-02-07T06:56:41.532Z,66.43
2018-02-07T06:57:41.460Z,66.34
2018-02-07T06:58:41.386Z,66.34
2018-02-07T06:59:41.314Z,66.24
2018-02-07T07:00:41.244Z,66.52
2018-02-07T07:01:41.172Z,66.62
2018-02-07T07:02:41.098Z,66.15
2018-02-07T07:03:41.027Z,66.15
2018-02-07T07:04:40.959Z,66.15
2018-02-07T07:05:40.884Z,66.05
2018-02-07T07:06:40.812Z,66.24
2018-02-07T07:07:40.740Z,66.15
2018-02-07T07:08:40.666Z,66.24
2018-02-07T07:09:40.595Z,66.24
2018-02-07T07:10:40.524Z,65.86
2018-02-07T07:11:40.451Z,65.77
2018-02-07T07:12:40.379Z,65.58
2018-02-07T07:13:40.307Z,65.58
2018-02-07T07:14:40.284Z,65.58
2018-02-07T07:15:40.163Z,65.96
2018-02-07T07:16:40.092Z,65.61
2018-02-07T07:17:40.022Z,65.48
2018-02-07T07:18:39.953Z,65.48
2018-02-07T07:19:39.877Z,66.05
2018-02-07T07:20:39.805Z,66.34
2018-02-07T07:21:39.733Z,65.77
2018-02-07T07:22:39.660Z,65.67
2018-02-07T07:23:39.590Z,65.86
2018-02-07T07:24:39.518Z,65.67
2018-02-07T07:25:39.455Z,65.86
2018-02-07T07:26:39.374Z,66.05
2018-02-07T07:27:39.634Z,66.52
2018-02-07T07:28:39.229Z,66.34
2018-02-07T07:29:39.157Z,66.24
2018-02-07T07:30:39.085Z,66.34
2018-02-07T07:31:39.014Z,67.00
2018-02-07T07:32:38.942Z,67.19
2018-02-07T07:33:38.872Z,66.94
2018-02-07T07:34:38.799Z,65.77
2018-02-07T07:35:38.726Z,66.34
2018-02-07T07:36:38.656Z,65.67
2018-02-07T07:37:38.583Z,65.61
2018-02-07T07:38:38.511Z,65.52
2018-02-07T07:39:38.441Z,65.80
2018-02-07T07:40:38.368Z,65.99
2018-02-07T07:41:38.298Z,65.99
2018-02-07T07:42:38.224Z,65.80
2018-02-07T07:43:38.153Z,65.80
2018-02-07T07:44:38.081Z,65.90
2018-02-07T07:45:38.010Z,65.90
2018-02-07T07:46:37.938Z,65.52
2018-02-07T07:47:37.865Z,65.14
2018-02-07T07:48:37.795Z,64.95
2018-02-07T07:49:37.722Z,65.23
2018-02-07T07:50:37.655Z,65.23
2018-02-07T07:51:37.579Z,65.14
2018-02-07T07:52:37.508Z,65.33
2018-02-07T07:53:37.439Z,65.33
2018-02-07T07:54:37.364Z,65.05
2018-02-07T07:55:37.292Z,65.23
2018-02-07T07:56:37.222Z,65.52
2018-02-07T07:57:37.156Z,64.95
2018-02-07T07:58:37.078Z,65.14
2018-02-07T07:59:37.010Z,65.23
2018-02-07T08:00:36.936Z,64.76
2018-02-07T08:01:36.864Z,64.58
2018-02-07T08:02:36.791Z,65.33
2018-02-07T08:03:36.720Z,64.76
2018-02-07T08:04:36.652Z,64.95
2018-02-07T08:05:36.578Z,65.52
2018-02-07T08:06:36.506Z,65.52
2018-02-07T08:07:36.435Z,65.33
2018-02-07T08:08:36.363Z,65.33
2018-02-07T08:09:36.292Z,65.23
2018-02-07T08:10:36.220Z,65.23
2018-02-07T08:11:36.150Z,65.05
2018-02-07T08:12:36.078Z,65.42
2018-02-07T08:13:36.008Z,64.86
2018-02-07T08:14:35.934Z,65.23
2018-02-07T08:15:35.863Z,65.14
2018-02-07T08:16:35.792Z,65.42
2018-02-07T08:17:35.722Z,65.52
2018-02-07T08:18:35.649Z,65.14
2018-02-07T08:19:35.578Z,65.33
2018-02-07T08:20:35.506Z,65.33
2018-02-07T08:21:35.435Z,65.42
2018-02-07T08:22:35.364Z,64.58
2018-02-07T08:23:35.293Z,64.58
2018-02-07T08:24:35.222Z,64.48
2018-02-07T08:25:35.152Z,64.58
2018-02-07T08:26:35.081Z,64.48
2018-02-07T08:27:35.012Z,64.70
2018-02-07T08:28:34.937Z,65.08
2018-02-07T08:29:34.867Z,65.27
2018-02-07T08:30:34.795Z,65.55
2018-02-07T08:31:34.724Z,65.27
2018-02-07T08:32:34.653Z,65.55
2018-02-07T08:33:34.583Z,65.93
2018-02-07T08:34:34.510Z,65.74
2018-02-07T08:35:34.441Z,66.03
2018-02-07T08:36:34.369Z,66.22
2018-02-07T08:37:34.313Z,66.41
2018-02-07T08:38:34.226Z,66.41
2018-02-07T08:39:34.157Z,67.35
2018-02-07T08:40:34.087Z,67.91
2018-02-07T08:41:34.016Z,67.72
2018-02-07T08:42:33.947Z,67.95
2018-02-07T08:43:33.874Z,67.85
2018-02-07T08:44:33.805Z,67.10
2018-02-07T08:45:33.734Z,66.91
2018-02-07T08:46:33.662Z,68.04
2018-02-07T08:47:33.593Z,68.23
2018-02-07T08:48:33.522Z,68.04
2018-02-07T08:49:33.453Z,68.14
2018-02-07T08:50:33.383Z,70.59
2018-02-07T08:51:33.312Z,68.33
2018-02-07T08:52:33.243Z,67.95
2018-02-07T08:53:33.173Z,68.33
2018-02-07T08:54:33.100Z,69.27
2018-02-07T08:55:33.030Z,68.33
2018-02-07T08:56:32.961Z,69.18
2018-02-07T08:57:32.892Z,68.04
2018-02-07T08:58:32.822Z,68.23
2018-02-07T08:59:32.783Z,69.27
2018-02-07T09:00:32.725Z,70.12
2018-02-07T09:01:32.612Z,70.88
2018-02-07T09:02:32.542Z,70.12
2018-02-07T09:03:32.473Z,70.69
2018-02-07T09:04:32.402Z,69.46
2018-02-07T09:05:32.368Z,69.65
2018-02-07T09:06:32.260Z,69.18
2018-02-07T09:07:32.192Z,72.11
2018-02-07T09:08:32.140Z,70.69
2018-02-07T09:09:32.091Z,71.45
2018-02-07T09:10:31.983Z,70.12
2018-02-07T09:11:31.912Z,70.50
2018-02-07T09:12:31.842Z,70.21
2018-02-07T09:13:31.772Z,69.46
2018-02-07T09:14:31.703Z,69.65
2018-02-07T09:15:31.633Z,70.12
2018-02-07T09:16:31.564Z,69.37
2018-02-07T09:17:31.495Z,71.16
2018-02-07T09:18:31.424Z,70.31
2018-02-07T09:19:31.353Z,70.40
2018-02-07T09:20:31.284Z,69.56
2018-02-07T09:21:31.214Z,70.31
2018-02-07T09:22:31.144Z,68.71
2018-02-07T09:23:31.075Z,70.78
2018-02-07T09:24:31.009Z,70.78
2018-02-07T09:25:30.936Z,71.45
2018-02-07T09:26:30.866Z,69.37
2018-02-07T09:27:30.796Z,70.03
2018-02-07T09:28:30.733Z,69.18
2018-02-07T09:29:30.659Z,69.74
2018-02-07T09:30:30.589Z,69.12
2018-02-07T09:31:30.518Z,71.30
2018-02-07T09:32:30.449Z,71.20
2018-02-07T09:33:30.380Z,69.59
2018-02-07T09:34:30.329Z,70.44
2018-02-07T09:35:30.241Z,72.62
2018-02-07T09:36:30.172Z,70.82
2018-02-07T09:37:30.103Z,72.05
2018-02-07T09:38:30.032Z,72.43
2018-02-07T09:39:29.963Z,72.33
2018-02-07T09:40:29.894Z,71.01
2018-02-07T09:41:29.825Z,70.35
2018-02-07T09:42:29.755Z,70.63
2018-02-07T09:43:29.686Z,71.48
2018-02-07T09:44:29.617Z,71.67
2018-02-07T09:45:29.549Z,72.24
2018-02-07T09:46:29.507Z,73.09
2018-02-07T09:47:29.409Z,71.77
2018-02-07T09:48:29.341Z,74.13
2018-02-07T09:49:29.273Z,75.26
2018-02-07T09:50:29.201Z,72.52
2018-02-07T09:51:29.133Z,71.77
2018-02-07T09:52:29.064Z,72.24
2018-02-07T09:53:28.997Z,74.04
2018-02-07T09:54:28.930Z,72.71
2018-02-07T09:55:28.856Z,72.24
2018-02-07T09:56:28.789Z,71.67
2018-02-07T09:57:28.719Z,73.79
2018-02-07T09:58:28.653Z,72.56
2018-02-07T09:59:28.583Z,73.88
2018-02-07T10:00:28.512Z,73.88
2018-02-07T10:01:28.446Z,74.07
2018-02-07T10:02:28.374Z,75.49
2018-02-07T10:03:28.306Z,73.32
2018-02-07T10:04:28.237Z,75.96
2018-02-07T10:05:28.170Z,74.26
2018-02-07T10:06:28.101Z,76.06
2018-02-07T10:07:28.031Z,76.63
2018-02-07T10:08:27.962Z,73.88
2018-02-07T10:09:27.894Z,77.01
2018-02-07T10:10:27.825Z,75.87
2018-02-07T10:11:27.756Z,76.53
2018-02-07T10:12:27.688Z,76.82
2018-02-07T10:13:27.620Z,74.55
2018-02-07T10:14:27.550Z,76.63
2018-02-07T10:15:27.482Z,74.36
2018-02-07T10:16:27.415Z,75.31
2018-02-07T10:17:27.346Z,76.06
2018-02-07T10:18:27.277Z,75.68
2018-02-07T10:19:27.208Z,75.78
2018-02-07T10:20:27.141Z,76.63
2018-02-07T10:21:27.077Z,76.82
2018-02-07T10:22:27.004Z,79.66
2018-02-07T10:23:26.935Z,77.10
2018-02-07T10:24:26.868Z,77.67
2018-02-07T10:25:26.801Z,76.91
2018-02-07T10:26:26.730Z,76.91
2018-02-07T10:27:26.662Z,73.13
2018-02-07T10:28:27.009Z,80.88
2018-02-07T10:29:26.595Z,77.76
2018-02-07T10:30:26.459Z,79.28
2018-02-07T10:31:26.395Z,79.37
2018-02-07T10:32:26.321Z,80.88
2018-02-07T10:33:26.260Z,76.63
2018-02-07T10:34:26.187Z,78.52
2018-02-07T10:35:26.116Z,78.80
2018-02-07T10:36:26.048Z,78.80
2018-02-07T10:37:25.981Z,76.44
2018-02-07T10:38:25.912Z,77.48
2018-02-07T10:39:25.843Z,79.37
2018-02-07T10:40:25.774Z,81.93
2018-02-07T10:41:25.708Z,79.47
2018-02-07T10:42:25.638Z,75.78
2018-02-07T10:43:25.571Z,76.82
2018-02-07T10:44:25.521Z,78.23
2018-02-07T10:45:25.462Z,77.67
2018-02-07T10:46:25.365Z,79.28
2018-02-07T10:47:25.299Z,77.48
2018-02-07T10:48:25.230Z,76.44
2018-02-07T10:49:25.162Z,75.96
2018-02-07T10:50:25.095Z,78.23
2018-02-07T10:51:25.025Z,78.14
2018-02-07T10:52:24.956Z,76.38
2018-02-07T10:53:24.888Z,78.08
2018-02-07T10:54:24.819Z,81.07
2018-02-07T10:55:24.752Z,77.99
2018-02-07T10:56:24.683Z,77.51
2018-02-07T10:57:24.616Z,81.17
2018-02-07T10:58:24.559Z,80.32
2018-02-07T10:59:24.479Z,75.91
2018-02-07T11:00:24.412Z,78.08
2018-02-07T11:01:24.344Z,78.18
2018-02-07T11:02:24.275Z,78.18
2018-02-07T11:03:24.208Z,79.69
2018-02-07T11:04:24.142Z,81.40
2018-02-07T11:05:24.073Z,81.96
2018-02-07T11:06:24.004Z,78.18
2018-02-07T11:07:23.936Z,79.41
2018-02-07T11:08:23.868Z,79.88
2018-02-07T11:09:23.802Z,78.75
2018-02-07T11:10:23.732Z,79.22
2018-02-07T11:11:23.665Z,78.75
2018-02-07T11:12:23.597Z,78.65
2018-02-07T11:13:23.531Z,79.69
2018-02-07T11:14:23.460Z,79.32
2018-02-07T11:15:23.393Z,80.83
2018-02-07T11:16:23.326Z,78.85
2018-02-07T11:17:23.258Z,78.85
2018-02-07T11:18:23.189Z,77.61
2018-02-07T11:19:23.122Z,76.67
2018-02-07T11:20:23.055Z,77.33
2018-02-07T11:21:22.987Z,78.65
2018-02-07T11:22:22.922Z,80.64
2018-02-07T11:23:22.852Z,79.69
2018-02-07T11:24:22.786Z,79.03
2018-02-07T11:25:22.720Z,79.03
2018-02-07T11:26:22.651Z,79.79
2018-02-07T11:27:22.584Z,79.03
2018-02-07T11:28:22.514Z,81.21
2018-02-07T11:29:22.446Z,80.83
2018-02-07T11:30:22.378Z,80.93
2018-02-07T11:31:22.311Z,79.79
2018-02-07T11:32:22.243Z,78.56
2018-02-07T11:33:22.179Z,82.25
2018-02-07T11:34:22.110Z,79.88
2018-02-07T11:35:22.040Z,78.27
2018-02-07T11:36:21.973Z,79.13
2018-02-07T11:37:21.907Z,77.89
2018-02-07T11:38:21.889Z,80.36
2018-02-07T11:39:21.770Z,80.93
2018-02-07T11:40:21.703Z,80.45
2018-02-07T11:41:21.637Z,79.41
2018-02-07T11:42:21.567Z,78.08
2018-02-07T11:43:21.506Z,80.07
2018-02-07T11:44:21.433Z,81.40
2018-02-07T11:45:21.396Z,81.40
2018-02-07T11:46:21.301Z,81.40
2018-02-07T11:47:21.230Z,79.13
2018-02-07T11:48:21.163Z,79.03
2018-02-07T11:49:21.097Z,83.39
2018-02-07T11:50:21.028Z,81.49
2018-02-07T11:51:20.961Z,78.69
2018-02-07T11:52:20.894Z,81.25
2018-02-07T11:53:20.828Z,80.11
2018-02-07T11:54:20.758Z,82.10
2018-02-07T11:55:20.690Z,82.39
2018-02-07T11:56:20.629Z,83.24
2018-02-07T11:57:20.557Z,79.64
2018-02-07T11:58:20.489Z,79.93
2018-02-07T11:59:20.423Z,82.29
2018-02-07T12:00:20.356Z,81.44
2018-02-07T12:01:20.612Z,83.05
2018-02-07T12:02:20.220Z,83.81
2018-02-07T12:03:20.155Z,81.72
2018-02-07T12:04:20.087Z,80.87
2018-02-07T12:05:20.020Z,83.05
2018-02-07T12:06:19.952Z,82.48
2018-02-07T12:07:19.884Z,84.00
2018-02-07T12:08:19.819Z,83.43
2018-02-07T12:09:19.753Z,85.80
2018-02-07T12:10:19.720Z,85.04
2018-02-07T12:11:19.617Z,80.87
2018-02-07T12:12:19.557Z,84.47
2018-02-07T12:13:19.546Z,85.32
2018-02-07T12:14:19.417Z,85.80
2018-02-07T12:15:19.349Z,82.67
2018-02-07T12:16:19.289Z,84.00
2018-02-07T12:17:19.217Z,80.77
2018-02-07T12:18:19.149Z,81.06
2018-02-07T12:19:19.084Z,83.24
2018-02-07T12:20:19.016Z,85.13
2018-02-07T12:21:18.956Z,82.81
2018-02-07T12:22:18.881Z,81.86
2018-02-07T12:23:18.819Z,83.28
2018-02-07T12:24:18.748Z,83.75
2018-02-07T12:25:18.683Z,85.17
2018-02-07T12:26:18.615Z,83.75
2018-02-07T12:27:18.548Z,84.23
2018-02-07T12:28:18.482Z,82.62
2018-02-07T12:29:18.415Z,83.37
2018-02-07T12:30:18.348Z,85.74
2018-02-07T12:31:18.322Z,83.28
2018-02-07T12:32:18.216Z,82.71
2018-02-07T12:33:18.148Z,81.86
2018-02-07T12:34:18.082Z,87.54
2018-02-07T12:35:18.016Z,83.56
2018-02-07T12:36:17.949Z,82.43
2018-02-07T12:37:17.882Z,84.61
2018-02-07T12:38:17.819Z,85.08
2018-02-07T12:39:17.748Z,86.12
2018-02-07T12:40:17.682Z,85.74
2018-02-07T12:41:17.616Z,83.94
2018-02-07T12:42:17.551Z,84.80
2018-02-07T12:43:17.482Z,83.00
2018-02-07T12:44:17.415Z,83.47
2018-02-07T12:45:17.351Z,84.04
2018-02-07T12:46:17.283Z,83.75
2018-02-07T12:47:17.239Z,87.07
2018-02-07T12:48:17.149Z,86.60
2018-02-07T12:49:17.083Z,85.27
2018-02-07T12:50:17.015Z,87.07
2018-02-07T12:51:16.949Z,84.13
2018-02-07T12:52:16.883Z,85.74